Time;durP1;ratioP1;P1;durP2;ratioP2;P2;SDS_P1;SDS_P2;PMS_P1;PMS_P2;Temp;Humidity;BMP_temperature;BMP_pressure;BME280_temperature;BME280_humidity;BME280_pressure;Samples;Min_cycle;Max_cycle;Signal;HPM_P1;HPM_P2
2021/03/01 00:01:35;;;;;;;;;;;179.60;1587.20;;;;;;5075343;28;19911;-79
2021/03/01 00:04:00;;;;;;;;;;;179.60;1587.20;;;;;;5093267;28;19982;-80
2021/03/01 00:06:26;;;;;;;;;;;179.70;1587.20;;;;;;5093730;28;20321;-79
2021/03/01 00:08:51;;;;;;;;;;;179.60;1612.80;;;;;;5075736;28;20337;-79
2021/03/01 00:11:17;;;;;;;;;;;179.60;1612.80;;;;;;5093721;28;19908;-79
2021/03/01 00:13:42;;;;;;;;;;;179.50;1638.40;;;;;;5075354;28;19947;-79
2021/03/01 00:16:08;;;;;;;;;;;179.50;1638.40;;;;;;5075873;28;19904;-79
2021/03/01 00:18:33;;;;;;;;;;;179.50;1664.00;;;;;;5075102;28;20283;-80
2021/03/01 00:20:59;;;;;;;;;;;179.50;1638.40;;;;;;5075880;28;19904;-80
2021/03/01 00:23:24;;;;;;;;;;;179.50;1638.40;;;;;;5075884;28;19908;-79
2021/03/01 00:25:51;;;;;;;;;;;179.50;1638.40;;;;;;5093403;28;19911;-80
2021/03/01 00:28:17;;;;;;;;;;;179.50;1638.40;;;;;;5093184;28;20351;-80
2021/03/01 00:30:42;;;;;;;;;;;179.40;1638.40;;;;;;5075185;28;19907;-79
2021/03/01 00:33:08;;;;;;;;;;;179.30;1638.40;;;;;;5074872;28;19911;-80
2021/03/01 00:35:33;;;;;;;;;;;179.40;1612.80;;;;;;5075292;28;19949;-78
2021/03/01 00:37:59;;;;;;;;;;;179.50;1612.80;;;;;;5075400;28;20351;-79
2021/03/01 00:40:24;;;;;;;;;;;179.50;1587.20;;;;;;5075274;28;20006;-78
2021/03/01 00:42:50;;;;;;;;;;;179.50;1587.20;;;;;;5074808;28;19920;-79
2021/03/01 00:45:16;;;;;;;;;;;179.50;1587.20;;;;;;5075145;28;19919;-79
2021/03/01 00:47:41;;;;;;;;;;;179.70;1587.20;;;;;;5077262;28;19904;-79
2021/03/01 00:50:07;;;;;;;;;;;179.70;1587.20;;;;;;5079436;28;19904;-78
2021/03/01 00:52:33;;;;;;;;;;;179.70;1561.60;;;;;;5079311;28;19922;-79
2021/03/01 00:54:59;;;;;;;;;;;179.70;1587.20;;;;;;5097331;28;20402;-80
2021/03/01 00:57:24;;;;;;;;;;;179.80;1561.60;;;;;;5078840;28;19908;-79
2021/03/01 00:59:50;;;;;;;;;;;179.80;1561.60;;;;;;5079373;28;19916;-79
2021/03/01 01:02:16;;;;;;;;;;;179.70;1561.60;;;;;;5078862;28;19908;-79
2021/03/01 01:04:41;;;;;;;;;;;179.90;1587.20;;;;;;5078295;28;19957;-78
2021/03/01 01:07:07;;;;;;;;;;;179.80;1587.20;;;;;;5096490;28;19907;-79
2021/03/01 01:09:32;;;;;;;;;;;179.70;1561.60;;;;;;5078223;28;20352;-79
2021/03/01 01:11:58;;;;;;;;;;;179.70;1587.20;;;;;;5096576;28;19908;-78
2021/03/01 01:14:23;;;;;;;;;;;179.50;1587.20;;;;;;5078843;28;19951;-78
2021/03/01 01:16:49;;;;;;;;;;;179.40;1587.20;;;;;;5078206;28;19904;-78
2021/03/01 01:19:15;;;;;;;;;;;179.30;1612.80;;;;;;5078651;28;20391;-80
2021/03/01 01:21:40;;;;;;;;;;;179.20;1612.80;;;;;;5078650;28;20002;-79
2021/03/01 01:24:06;;;;;;;;;;;154.50;1638.40;;;;;;5078465;28;19911;-78
2021/03/01 01:26:31;;;;;;;;;;;154.50;1638.40;;;;;;5079329;28;19911;-79
2021/03/01 01:28:57;;;;;;;;;;;154.50;1664.00;;;;;;5102557;28;19919;-77
2021/03/01 01:31:22;;;;;;;;;;;154.50;1664.00;;;;;;5092042;28;19911;-77
2021/03/01 01:33:48;;;;;;;;;;;154.50;1664.00;;;;;;5088026;28;20307;-78
2021/03/01 01:36:14;;;;;;;;;;;179.20;1638.40;;;;;;5078608;28;19904;-78
2021/03/01 01:38:39;;;;;;;;;;;179.30;1638.40;;;;;;5095814;28;20158;-78
2021/03/01 01:41:05;;;;;;;;;;;179.30;1638.40;;;;;;5078314;28;20344;-78
2021/03/01 01:43:30;;;;;;;;;;;179.30;1638.40;;;;;;5077813;28;19920;-78
2021/03/01 01:45:56;;;;;;;;;;;179.40;1638.40;;;;;;5078080;28;20278;-79
2021/03/01 01:48:21;;;;;;;;;;;179.40;1638.40;;;;;;5096106;28;20343;-79
2021/03/01 01:50:47;;;;;;;;;;;179.30;1638.40;;;;;;5076950;28;19903;-78
2021/03/01 01:53:13;;;;;;;;;;;179.30;1638.40;;;;;;5077949;28;19908;-79
2021/03/01 01:55:38;;;;;;;;;;;179.30;1638.40;;;;;;5077683;28;19950;-79
2021/03/01 01:58:04;;;;;;;;;;;154.50;1664.00;;;;;;5076586;28;19904;-79
2021/03/01 02:00:48;;;;;;;;;;;154.50;1664.00;;;;;;5076911;28;20012;-79
2021/03/01 02:03:32;;;;;;;;;;;154.40;1664.00;;;;;;5077688;28;19908;-79
2021/03/01 02:06:01;;;;;;;;;;;154.40;1664.00;;;;;;5077935;28;19943;-79
2021/03/01 02:08:29;;;;;;;;;;;154.30;1689.60;;;;;;5095369;28;19951;-79
2021/03/01 02:10:57;;;;;;;;;;;154.30;1689.60;;;;;;5078048;28;19904;-79
2021/03/01 02:13:37;;;;;;;;;;;154.20;1689.60;;;;;;5077191;28;19912;-79
2021/03/01 02:16:05;;;;;;;;;;;154.10;1715.20;;;;;;5077429;28;19903;-79
2021/03/01 02:18:30;;;;;;;;;;;154.10;1715.20;;;;;;5077344;28;19916;-79
2021/03/01 02:21:06;;;;;;;;;;;154.20;1715.20;;;;;;5076954;28;19908;-79
2021/03/01 02:23:32;;;;;;;;;;;154.30;1689.60;;;;;;5077258;28;19904;-79
2021/03/01 02:26:01;;;;;;;;;;;154.40;1689.60;;;;;;5069855;28;19911;-79
2021/03/01 02:28:29;;;;;;;;;;;154.40;1689.60;;;;;;5055627;28;19905;-79
2021/03/01 02:30:56;;;;;;;;;;;154.40;1689.60;;;;;;5054035;28;19904;-79
2021/03/01 02:33:23;;;;;;;;;;;154.40;1689.60;;;;;;5050614;28;19904;-80
2021/03/01 02:35:53;;;;;;;;;;;154.50;1664.00;;;;;;5068495;28;20356;-79
2021/03/01 02:38:20;;;;;;;;;;;154.40;1664.00;;;;;;5043417;28;19957;-79
2021/03/01 02:40:46;;;;;;;;;;;154.40;1664.00;;;;;;5047588;28;19909;-79
2021/03/01 02:43:12;;;;;;;;;;;154.40;1664.00;;;;;;5041363;28;19923;-79
2021/03/01 02:45:39;;;;;;;;;;;154.30;1664.00;;;;;;5045799;28;20000;-78
2021/03/01 02:48:05;;;;;;;;;;;154.40;1664.00;;;;;;5048078;28;20319;-78
2021/03/01 02:50:31;;;;;;;;;;;154.40;1664.00;;;;;;5053396;28;19915;-76
2021/03/01 02:52:57;;;;;;;;;;;154.50;1664.00;;;;;;5051308;28;19908;-78
2021/03/01 02:55:24;;;;;;;;;;;154.50;1638.40;;;;;;5055983;28;19951;-79
2021/03/01 02:57:50;;;;;;;;;;;154.50;1664.00;;;;;;5054072;28;19913;-80
2021/03/01 03:00:16;;;;;;;;;;;154.50;1664.00;;;;;;5052813;28;19970;-79
2021/03/01 03:02:42;;;;;;;;;;;154.40;1664.00;;;;;;5044515;28;19905;-79
2021/03/01 03:05:09;;;;;;;;;;;154.40;1664.00;;;;;;5044307;28;20072;-79
2021/03/01 03:07:37;;;;;;;;;;;154.30;1664.00;;;;;;5071875;28;19912;-79
2021/03/01 03:10:04;;;;;;;;;;;154.30;1664.00;;;;;;5045109;28;19914;-79
2021/03/01 03:12:30;;;;;;;;;;;154.30;1689.60;;;;;;5061316;28;19916;-78
2021/03/01 03:14:56;;;;;;;;;;;154.20;1664.00;;;;;;5051387;28;20405;-79
2021/03/01 03:17:22;;;;;;;;;;;154.20;1689.60;;;;;;5041155;28;19987;-79
2021/03/01 03:19:48;;;;;;;;;;;154.30;1689.60;;;;;;5049367;28;19976;-79
2021/03/01 03:22:14;;;;;;;;;;;154.20;1664.00;;;;;;5058560;28;19914;-78
2021/03/01 03:24:39;;;;;;;;;;;154.20;1689.60;;;;;;5048402;28;19950;-79
2021/03/01 03:27:05;;;;;;;;;;;154.20;1689.60;;;;;;5043062;28;19905;-79
2021/03/01 03:29:31;;;;;;;;;;;154.20;1689.60;;;;;;5049218;28;19913;-78
2021/03/01 03:31:56;;;;;;;;;;;154.20;1689.60;;;;;;5048468;28;19992;-79
2021/03/01 03:34:22;;;;;;;;;;;154.10;1689.60;;;;;;5044483;28;19905;-78
2021/03/01 03:36:52;;;;;;;;;;;154.00;1689.60;;;;;;5055028;28;19904;-79
2021/03/01 03:39:18;;;;;;;;;;;153.90;1715.20;;;;;;5046111;28;19996;-79
2021/03/01 03:41:45;;;;;;;;;;;153.80;1715.20;;;;;;5042251;28;20355;-78
2021/03/01 03:44:11;;;;;;;;;;;153.70;1740.80;;;;;;5045941;28;19924;-79
2021/03/01 03:46:37;;;;;;;;;;;153.80;1740.80;;;;;;5062040;28;20364;-79
2021/03/01 03:49:04;;;;;;;;;;;153.80;1740.80;;;;;;5051744;28;19905;-79
2021/03/01 03:51:30;;;;;;;;;;;153.90;1740.80;;;;;;5047916;28;19994;-78
2021/03/01 03:53:57;;;;;;;;;;;153.80;1740.80;;;;;;5046871;28;19904;-79
2021/03/01 03:56:25;;;;;;;;;;;153.90;1740.80;;;;;;5050845;28;19908;-79
2021/03/01 03:58:52;;;;;;;;;;;153.90;1740.80;;;;;;5051195;28;19919;-78
2021/03/01 04:01:19;;;;;;;;;;;153.90;1740.80;;;;;;5037719;28;20051;-78
2021/03/01 04:03:46;;;;;;;;;;;154.00;1740.80;;;;;;5051487;28;19908;-79
2021/03/01 04:06:13;;;;;;;;;;;153.80;1740.80;;;;;;5053786;28;19916;-77
2021/03/01 04:08:40;;;;;;;;;;;153.80;1740.80;;;;;;5040975;28;19936;-79
2021/03/01 04:11:05;;;;;;;;;;;153.90;1740.80;;;;;;5044810;28;19999;-79
2021/03/01 04:13:32;;;;;;;;;;;153.90;1740.80;;;;;;5047333;28;19959;-79
2021/03/01 04:15:58;;;;;;;;;;;153.90;1740.80;;;;;;5052026;28;19965;-80
2021/03/01 04:18:24;;;;;;;;;;;153.80;1740.80;;;;;;5042598;28;20356;-79
2021/03/01 04:20:52;;;;;;;;;;;153.90;1715.20;;;;;;5045528;28;19962;-79
2021/03/01 04:23:17;;;;;;;;;;;153.90;1715.20;;;;;;5039557;28;19904;-79
2021/03/01 04:25:43;;;;;;;;;;;153.80;1740.80;;;;;;5043998;28;19998;-79
2021/03/01 04:28:10;;;;;;;;;;;153.80;1766.40;;;;;;5053282;28;19911;-79
2021/03/01 04:30:36;;;;;;;;;;;153.80;1740.80;;;;;;5040550;28;19913;-79
2021/03/01 04:33:02;;;;;;;;;;;153.80;1740.80;;;;;;5042640;28;19904;-79
2021/03/01 04:35:28;;;;;;;;;;;154.00;1740.80;;;;;;5047377;28;19912;-79
2021/03/01 04:37:54;;;;;;;;;;;153.70;1766.40;;;;;;5052620;28;19913;-78
2021/03/01 04:40:19;;;;;;;;;;;153.70;1766.40;;;;;;5041102;28;19967;-79
2021/03/01 04:42:46;;;;;;;;;;;153.60;1740.80;;;;;;5049840;28;20053;-79
2021/03/01 04:45:14;;;;;;;;;;;128.90;1766.40;;;;;;5053175;28;19913;-79
2021/03/01 04:47:40;;;;;;;;;;;128.70;1766.40;;;;;;5044931;28;19912;-79
2021/03/01 04:50:06;;;;;;;;;;;128.70;1766.40;;;;;;5054894;28;19904;-80
2021/03/01 04:52:32;;;;;;;;;;;128.80;1766.40;;;;;;5053906;28;19911;-79
2021/03/01 04:55:00;;;;;;;;;;;128.70;1766.40;;;;;;5054016;28;20375;-78
2021/03/01 04:57:26;;;;;;;;;;;128.70;1766.40;;;;;;5054583;28;19905;-79
2021/03/01 04:59:52;;;;;;;;;;;128.70;1766.40;;;;;;5062328;28;19912;-79
2021/03/01 05:02:17;;;;;;;;;;;128.60;1792.00;;;;;;5063537;28;19951;-79
2021/03/01 05:04:43;;;;;;;;;;;128.70;1792.00;;;;;;5044619;28;19908;-78
2021/03/01 05:07:09;;;;;;;;;;;128.70;1792.00;;;;;;5061825;28;19904;-79
2021/03/01 05:09:35;;;;;;;;;;;128.80;1766.40;;;;;;5057905;28;19949;-77
2021/03/01 05:12:01;;;;;;;;;;;128.70;1766.40;;;;;;5057996;28;19916;-77
2021/03/01 05:14:26;;;;;;;;;;;128.80;1766.40;;;;;;5065081;28;19909;-80
2021/03/01 05:16:52;;;;;;;;;;;128.80;1766.40;;;;;;5063056;28;19909;-78
2021/03/01 05:19:17;;;;;;;;;;;128.90;1766.40;;;;;;5047423;28;19912;-78
2021/03/01 05:21:43;;;;;;;;;;;128.90;1766.40;;;;;;5060446;28;19913;-77
2021/03/01 05:24:09;;;;;;;;;;;128.80;1766.40;;;;;;5041203;28;19927;-78
2021/03/01 05:26:34;;;;;;;;;;;128.90;1766.40;;;;;;5061497;28;19908;-80
2021/03/01 05:29:01;;;;;;;;;;;128.80;1766.40;;;;;;5058949;28;20318;-80
2021/03/01 05:31:27;;;;;;;;;;;128.70;1766.40;;;;;;5050671;28;19904;-81
2021/03/01 05:33:52;;;;;;;;;;;128.70;1766.40;;;;;;5067143;28;19950;-77
2021/03/01 05:36:18;;;;;;;;;;;128.60;1766.40;;;;;;5044718;28;19922;-77
2021/03/01 05:38:43;;;;;;;;;;;128.40;1792.00;;;;;;5042298;28;20280;-77
2021/03/01 05:41:09;;;;;;;;;;;128.30;1792.00;;;;;;5048812;28;19904;-77
2021/03/01 05:43:35;;;;;;;;;;;128.30;1792.00;;;;;;5057581;28;19967;-77
2021/03/01 05:46:00;;;;;;;;;;;128.30;1817.60;;;;;;5056621;28;20287;-77
2021/03/01 05:48:27;;;;;;;;;;;128.20;1817.60;;;;;;5057110;28;20332;-77
2021/03/01 05:50:58;;;;;;;;;;;128.30;1817.60;;;;;;5057598;28;20010;-77
2021/03/01 05:53:36;;;;;;;;;;;128.30;1817.60;;;;;;5057725;28;19995;-79
2021/03/01 05:56:02;;;;;;;;;;;128.40;1817.60;;;;;;5057505;28;19908;-79
2021/03/01 05:58:28;;;;;;;;;;;128.40;1817.60;;;;;;5074849;28;19904;-77
2021/03/01 06:01:03;;;;;;;;;;;128.40;1817.60;;;;;;5057346;28;19908;-77
2021/03/01 06:03:31;;;;;;;;;;;128.20;1843.20;;;;;;5052920;28;19905;-80
2021/03/01 06:05:57;;;;;;;;;;;128.20;1843.20;;;;;;5057074;28;19955;-76
2021/03/01 06:08:26;;;;;;;;;;;128.10;1843.20;;;;;;5075406;28;19912;-78
2021/03/01 06:10:59;;;;;;;;;;;128.00;1868.80;;;;;;5057471;28;20382;-77
2021/03/01 06:13:25;;;;;;;;;;;128.00;1868.80;;;;;;5075177;28;19913;-76
2021/03/01 06:15:54;;;;;;;;;;;128.00;1868.80;;;;;;5056785;28;19993;-77
2021/03/01 06:18:20;;;;;;;;;;;103.30;1868.80;;;;;;5056735;28;20037;-77
2021/03/01 06:20:46;;;;;;;;;;;128.10;1868.80;;;;;;5056723;28;19995;-79
2021/03/01 06:23:11;;;;;;;;;;;128.20;1868.80;;;;;;5056888;28;19904;-78
2021/03/01 06:25:37;;;;;;;;;;;128.20;1868.80;;;;;;5075122;28;20443;-79
2021/03/01 06:28:04;;;;;;;;;;;128.20;1894.40;;;;;;5056370;28;20284;-78
2021/03/01 06:30:31;;;;;;;;;;;128.30;1894.40;;;;;;5057030;28;19936;-79
2021/03/01 06:33:10;;;;;;;;;;;128.50;1868.80;;;;;;5056962;28;20441;-78
2021/03/01 06:35:57;;;;;;;;;;;128.60;1843.20;;;;;;5074892;28;19950;-78
2021/03/01 06:38:30;;;;;;;;;;;128.80;1843.20;;;;;;5054626;28;19937;-78
2021/03/01 06:41:10;;;;;;;;;;;128.80;1843.20;;;;;;5074725;28;19908;-78
2021/03/01 06:43:37;;;;;;;;;;;153.60;1843.20;;;;;;5050119;28;19927;-78
2021/03/01 06:46:10;;;;;;;;;;;153.70;1843.20;;;;;;5074477;28;19908;-79
2021/03/01 06:48:36;;;;;;;;;;;153.80;1817.60;;;;;;5074381;28;20000;-78
2021/03/01 06:51:02;;;;;;;;;;;153.70;1817.60;;;;;;5056784;28;19955;-78
2021/03/01 06:53:28;;;;;;;;;;;153.90;1817.60;;;;;;5074259;28;20284;-79
2021/03/01 06:55:53;;;;;;;;;;;154.10;1792.00;;;;;;5074332;28;20329;-80
2021/03/01 06:58:19;;;;;;;;;;;154.10;1792.00;;;;;;5074588;28;19904;-79
2021/03/01 07:00:45;;;;;;;;;;;154.30;1766.40;;;;;;5056511;28;19912;-80
2021/03/01 07:03:24;;;;;;;;;;;154.20;1766.40;;;;;;5056134;28;19909;-81
2021/03/01 07:05:53;;;;;;;;;;;154.30;1792.00;;;;;;5056608;28;19995;-78
2021/03/01 07:08:39;;;;;;;;;;;154.20;1792.00;;;;;;5056223;28;19908;-80
2021/03/01 07:11:20;;;;;;;;;;;154.30;1817.60;;;;;;5045559;28;19911;-81
2021/03/01 07:13:45;;;;;;;;;;;154.40;1817.60;;;;;;5033912;28;19979;-80
2021/03/01 07:16:11;;;;;;;;;;;154.40;1817.60;;;;;;5048081;28;20352;-81
2021/03/01 07:18:37;;;;;;;;;;;154.40;1817.60;;;;;;5039909;28;19912;-81
2021/03/01 07:21:02;;;;;;;;;;;154.50;1792.00;;;;;;5054367;28;19905;-80
2021/03/01 07:23:28;;;;;;;;;;;179.20;1792.00;;;;;;5056239;28;19905;-80
2021/03/01 07:25:54;;;;;;;;;;;179.20;1817.60;;;;;;5056867;28;19912;-81
2021/03/01 07:28:20;;;;;;;;;;;179.30;1817.60;;;;;;5056393;28;19950;-80
2021/03/01 07:30:48;;;;;;;;;;;179.60;1792.00;;;;;;5056235;28;19908;-79
2021/03/01 07:33:14;;;;;;;;;;;179.50;1792.00;;;;;;5052030;28;19917;-78
2021/03/01 07:35:43;;;;;;;;;;;179.60;1792.00;;;;;;5046191;28;19935;-79
2021/03/01 07:38:09;;;;;;;;;;;179.50;1792.00;;;;;;5053085;28;19908;-77
2021/03/01 07:40:35;;;;;;;;;;;179.70;1792.00;;;;;;5055664;28;19916;-79
2021/03/01 07:43:01;;;;;;;;;;;179.90;1817.60;;;;;;5066031;28;19936;-79
2021/03/01 07:45:27;;;;;;;;;;;179.50;1817.60;;;;;;5066168;28;19916;-78
2021/03/01 07:47:53;;;;;;;;;;;179.70;1792.00;;;;;;5072788;28;19911;-79
2021/03/01 07:50:31;;;;;;;;;;;179.80;1766.40;;;;;;5057386;28;19995;-78
2021/03/01 07:52:57;;;;;;;;;;;179.80;1817.60;;;;;;5069812;28;19935;-78
2021/03/01 07:55:23;;;;;;;;;;;179.90;1766.40;;;;;;5054793;28;19904;-78
2021/03/01 07:57:58;;;;;;;;;;;179.70;1792.00;;;;;;5050863;28;20363;-75
2021/03/01 08:00:29;;;;;;;;;;;179.70;1817.60;;;;;;5053071;28;19974;-75
2021/03/01 08:02:56;;;;;;;;;;;179.50;1843.20;;;;;;5072392;28;19912;-75
2021/03/01 08:05:28;;;;;;;;;;;179.70;1868.80;;;;;;5053548;28;19970;-76
2021/03/01 08:07:54;;;;;;;;;;;179.60;1868.80;;;;;;5072329;28;19908;-75
2021/03/01 08:10:39;;;;;;;;;;;179.70;1843.20;;;;;;5054009;28;19927;-76
2021/03/01 08:13:05;;;;;;;;;;;179.60;1817.60;;;;;;5055035;28;19915;-75
2021/03/01 08:15:37;;;;;;;;;;;179.70;1817.60;;;;;;5054669;28;20287;-79
2021/03/01 08:18:03;;;;;;;;;;;179.60;1817.60;;;;;;5055164;28;19911;-76
2021/03/01 08:20:30;;;;;;;;;;;179.60;1817.60;;;;;;5047963;28;19919;-77
2021/03/01 08:23:02;;;;;;;;;;;179.80;1792.00;;;;;;5056018;28;20280;-75
2021/03/01 08:25:51;;;;;;;;;;;179.90;1766.40;;;;;;5067612;28;19986;-79
2021/03/01 08:28:20;;;;;;;;;;;179.90;1740.80;;;;;;5047310;28;19947;-77
2021/03/01 08:30:49;;;;;;;;;;;180.00;1740.80;;;;;;5059859;28;20050;-77
2021/03/01 08:33:15;;;;;;;;;;;180.10;1689.60;;;;;;5044978;28;19908;-79
2021/03/01 08:35:46;;;;;;;;;;;180.00;1740.80;;;;;;5059485;28;20417;-75
2021/03/01 08:38:13;;;;;;;;;;;204.80;1689.60;;;;;;5052259;28;20388;-80
2021/03/01 08:40:55;;;;;;;;;;;204.90;1689.60;;;;;;5046539;28;19999;-80
2021/03/01 08:43:30;;;;;;;;;;;205.00;1689.60;;;;;;5055213;28;19973;-80
2021/03/01 08:45:56;;;;;;;;;;;205.10;1689.60;;;;;;5055535;28;19938;-77
2021/03/01 08:48:21;;;;;;;;;;;205.10;1664.00;;;;;;5066109;28;19908;-77
2021/03/01 08:50:48;;;;;;;;;;;205.10;1689.60;;;;;;5064729;28;20244;-82
2021/03/01 08:53:18;;;;;;;;;;;205.10;1689.60;;;;;;5064616;28;19979;-78
2021/03/01 08:55:44;;;;;;;;;;;205.30;1664.00;;;;;;5077469;28;19904;-77
2021/03/01 08:58:12;;;;;;;;;;;205.30;1638.40;;;;;;5070424;28;19999;-76
2021/03/01 09:00:38;;;;;;;;;;;205.60;1638.40;;;;;;5075090;28;20287;-77
2021/03/01 09:03:15;;;;;;;;;;;205.60;1612.80;;;;;;5054125;28;19947;-78
2021/03/01 09:05:41;;;;;;;;;;;205.50;1664.00;;;;;;5053963;28;19908;-79
2021/03/01 09:08:08;;;;;;;;;;;205.60;1638.40;;;;;;5056524;28;20356;-77
2021/03/01 09:10:38;;;;;;;;;;;230.40;1612.80;;;;;;5063960;28;19935;-76
2021/03/01 09:13:04;;;;;;;;;;;205.70;1638.40;;;;;;5068664;28;19916;-77
2021/03/01 09:15:30;;;;;;;;;;;230.60;1587.20;;;;;;5068392;28;19908;-75
2021/03/01 09:17:56;;;;;;;;;;;230.70;1612.80;;;;;;5085681;28;19904;-76
2021/03/01 09:20:22;;;;;;;;;;;230.80;1587.20;;;;;;5066835;28;20331;-76
2021/03/01 09:22:48;;;;;;;;;;;230.80;1561.60;;;;;;5086949;28;20279;-78
2021/03/01 09:25:29;;;;;;;;;;;230.90;1587.20;;;;;;5067198;28;19904;-78
2021/03/01 09:27:55;;;;;;;;;;;231.00;1510.40;;;;;;5065534;28;19904;-79
2021/03/01 09:30:22;;;;;;;;;;;231.10;1536.00;;;;;;5064326;28;20397;-78
2021/03/01 09:33:06;;;;;;;;;;;256.00;1510.40;;;;;;5080586;28;19919;-77
2021/03/01 09:35:33;;;;;;;;;;;256.20;1484.80;;;;;;5044139;28;20394;-81
2021/03/01 09:38:00;;;;;;;;;;;256.10;1536.00;;;;;;5059657;28;19963;-77
2021/03/01 09:40:26;;;;;;;;;;;256.40;1459.20;;;;;;5077025;28;19912;-80
2021/03/01 09:42:53;;;;;;;;;;;256.50;1408.00;;;;;;5060311;28;19912;-78
2021/03/01 09:45:19;;;;;;;;;;;256.70;1408.00;;;;;;5068622;28;19912;-77
2021/03/01 09:47:49;;;;;;;;;;;256.60;1433.60;;;;;;5057548;28;20360;-80
2021/03/01 09:50:15;;;;;;;;;;;256.80;1433.60;;;;;;5057110;28;19910;-78
2021/03/01 09:52:41;;;;;;;;;;;256.80;1408.00;;;;;;5056937;28;20007;-77
2021/03/01 09:55:08;;;;;;;;;;;256.90;1433.60;;;;;;5058024;28;20013;-77
2021/03/01 09:57:34;;;;;;;;;;;281.60;1459.20;;;;;;5063886;28;19904;-78
2021/03/01 09:59:59;;;;;;;;;;;281.70;1433.60;;;;;;5056975;28;20291;-76
2021/03/01 10:02:25;;;;;;;;;;;281.90;1408.00;;;;;;5056987;28;20061;-76
2021/03/01 10:04:52;;;;;;;;;;;282.10;1382.40;;;;;;5056926;28;19908;-76
2021/03/01 10:07:17;;;;;;;;;;;282.40;1356.80;;;;;;5074735;28;20268;-76
2021/03/01 10:09:43;;;;;;;;;;;307.20;1382.40;;;;;;5057045;28;19904;-77
2021/03/01 10:12:09;;;;;;;;;;;282.20;1382.40;;;;;;5074628;28;19962;-78
2021/03/01 10:14:34;;;;;;;;;;;282.50;1356.80;;;;;;5074790;28;19908;-77
2021/03/01 10:17:13;;;;;;;;;;;307.40;1356.80;;;;;;5058409;28;19908;-76
2021/03/01 10:19:39;;;;;;;;;;;307.60;1331.20;;;;;;5062416;28;20010;-79
2021/03/01 10:22:04;;;;;;;;;;;307.80;1305.60;;;;;;5056253;28;19940;-78
2021/03/01 10:24:40;;;;;;;;;;;308.00;1305.60;;;;;;5074020;28;19904;-77
2021/03/01 10:27:07;;;;;;;;;;;332.80;1331.20;;;;;;5053816;28;19904;-77
2021/03/01 10:29:36;;;;;;;;;;;332.90;1305.60;;;;;;5056998;28;19904;-79
2021/03/01 10:32:02;;;;;;;;;;;333.30;1254.40;;;;;;5056701;28;19904;-79
2021/03/01 10:34:38;;;;;;;;;;;333.40;1228.80;;;;;;5056504;28;20427;-78
2021/03/01 10:37:08;;;;;;;;;;;333.20;1280.00;;;;;;5056635;28;19950;-79
2021/03/01 10:39:42;;;;;;;;;;;333.10;1254.40;;;;;;5074563;28;19912;-79
2021/03/01 10:42:12;;;;;;;;;;;333.40;1280.00;;;;;;5056337;28;19912;-79
2021/03/01 10:44:42;;;;;;;;;;;333.70;1203.20;;;;;;5053586;28;20456;-79
2021/03/01 10:47:26;;;;;;;;;;;358.60;1203.20;;;;;;5055599;28;19913;-77
2021/03/01 10:49:53;;;;;;;;;;;358.70;1177.60;;;;;;5051119;28;20348;-78
2021/03/01 10:52:19;;;;;;;;;;;358.80;1126.40;;;;;;5053408;28;20329;-79
2021/03/01 10:54:45;;;;;;;;;;;358.70;1152.00;;;;;;5052939;28;19995;-78
2021/03/01 10:57:10;;;;;;;;;;;358.70;1126.40;;;;;;5053044;28;19913;-78
2021/03/01 10:59:36;;;;;;;;;;;359.00;1126.40;;;;;;5052206;28;19913;-78
2021/03/01 11:02:03;;;;;;;;;;;359.10;1100.80;;;;;;5054116;28;19973;-78
2021/03/01 11:04:28;;;;;;;;;;;359.20;1126.40;;;;;;5052942;28;19905;-78
2021/03/01 11:06:54;;;;;;;;;;;359.10;1100.80;;;;;;5054039;28;20156;-79
2021/03/01 11:09:20;;;;;;;;;;;359.30;1075.20;;;;;;5055876;28;19908;-77
2021/03/01 11:11:46;;;;;;;;;;;384.20;1126.40;;;;;;5054996;28;20001;-78
2021/03/01 11:14:12;;;;;;;;;;;384.10;1075.20;;;;;;5052666;28;19912;-77
2021/03/01 11:16:38;;;;;;;;;;;359.30;1075.20;;;;;;5053911;28;20375;-77
2021/03/01 11:19:04;;;;;;;;;;;384.00;1049.60;;;;;;5054320;28;19909;-78
2021/03/01 11:21:30;;;;;;;;;;;384.30;1024.00;;;;;;5054860;28;19908;-78
2021/03/01 11:23:56;;;;;;;;;;;384.30;1049.60;;;;;;5054902;28;20360;-77
2021/03/01 11:26:22;;;;;;;;;;;384.60;1024.00;;;;;;5054783;28;19944;-77
2021/03/01 11:28:48;;;;;;;;;;;409.60;1049.60;;;;;;5073035;28;20013;-78
2021/03/01 11:31:13;;;;;;;;;;;384.80;1024.00;;;;;;5052186;28;20007;-78
2021/03/01 11:33:39;;;;;;;;;;;409.70;1024.00;;;;;;5054369;28;20382;-78
2021/03/01 11:36:06;;;;;;;;;;;409.60;1024.00;;;;;;5055397;28;19919;-78
2021/03/01 11:38:31;;;;;;;;;;;384.90;1024.00;;;;;;5055071;28;19918;-78
2021/03/01 11:40:58;;;;;;;;;;;409.90;1024.00;;;;;;5057206;28;19998;-79
2021/03/01 11:43:24;;;;;;;;;;;409.90;998.40;;;;;;5054722;28;19935;-79
2021/03/01 11:45:49;;;;;;;;;;;410.10;1049.60;;;;;;5054799;28;20268;-78
2021/03/01 11:48:15;;;;;;;;;;;410.30;1024.00;;;;;;5054515;28;19950;-78
2021/03/01 11:50:41;;;;;;;;;;;410.20;998.40;;;;;;5065815;28;19952;-78
2021/03/01 11:53:07;;;;;;;;;;;409.90;998.40;;;;;;5054794;28;19913;-78
2021/03/01 11:57:05;;;;;;;36.63;16.45;;;410.50;1024.00;;;;;;5109877;27;20385;-78
2021/03/01 11:59:31;;;;;;;26.55;15.00;;;435.40;972.80;;;;;;5106393;28;20077;-79
2021/03/01 12:01:56;;;;;;;115.82;62.08;;;435.20;947.20;;;;;;5108196;28;20028;-78
2021/03/01 12:04:22;;;;;;;46.00;25.50;;;410.30;998.40;;;;;;5107716;28;20388;-78
2021/03/01 12:06:48;;;;;;;21.50;14.30;;;410.00;998.40;;;;;;5107036;28;20549;-78
2021/03/01 12:09:13;;;;;;;50.03;27.45;;;410.20;972.80;;;;;;5108711;28;20030;-79
2021/03/01 12:11:39;;;;;;;31.20;16.38;;;435.20;972.80;;;;;;5108869;28;20020;-78
2021/03/01 12:14:05;;;;;;;24.20;14.95;;;435.60;921.60;;;;;;5108738;28;20024;-79
2021/03/01 12:16:30;;;;;;;29.67;14.88;;;410.40;972.80;;;;;;5108741;28;20503;-79
2021/03/01 12:18:56;;;;;;;19.77;12.27;;;435.50;947.20;;;;;;5108851;28;20067;-78
2021/03/01 12:21:22;;;;;;;17.65;12.30;;;435.50;921.60;;;;;;5108889;28;20472;-78
2021/03/01 12:23:47;;;;;;;19.35;13.02;;;435.60;921.60;;;;;;5108775;28;20392;-78
2021/03/01 12:26:14;;;;;;;25.20;13.68;;;435.30;998.40;;;;;;5108696;28;20421;-78
2021/03/01 12:28:40;;;;;;;22.23;14.32;;;435.60;947.20;;;;;;5108355;28;20035;-78
2021/03/01 12:31:05;;;;;;;26.33;14.95;;;435.40;998.40;;;;;;5116637;28;20039;-76
2021/03/01 12:33:31;;;;;;;24.95;14.30;;;410.50;972.80;;;;;;5130807;28;20016;-78
2021/03/01 12:35:57;;;;;;;26.77;15.07;;;409.90;1024.00;;;;;;5129176;28;20039;-78
2021/03/01 12:38:23;;;;;;;19.92;13.52;;;384.30;1100.80;;;;;;5107785;28;20024;-78
2021/03/01 12:40:48;;;;;;;30.60;14.90;;;384.10;1075.20;;;;;;5106201;28;20139;-78
2021/03/01 12:43:14;;;;;;;23.17;14.00;;;384.40;1075.20;;;;;;5107365;28;20020;-77
2021/03/01 12:45:40;;;;;;;25.55;14.57;;;384.90;1024.00;;;;;;5107338;28;20471;-78
2021/03/01 12:48:06;;;;;;;22.52;15.02;;;384.90;1024.00;;;;;;5107337;28;20169;-78
2021/03/01 12:50:32;;;;;;;23.63;13.68;;;409.80;998.40;;;;;;5109786;28;20066;-77
2021/03/01 12:52:57;;;;;;;22.88;13.85;;;410.00;998.40;;;;;;5107146;28;20060;-78
2021/03/01 12:55:23;;;;;;;24.95;15.48;;;410.30;998.40;;;;;;5107009;28;20475;-78
2021/03/01 12:57:49;;;;;;;23.05;14.55;;;410.00;1024.00;;;;;;5105732;28;20050;-78
2021/03/01 13:00:15;;;;;;;26.90;15.88;;;384.90;1024.00;;;;;;5106995;28;20031;-79
2021/03/01 13:02:41;;;;;;;22.60;15.48;;;384.20;1100.80;;;;;;5087476;28;20093;-77
2021/03/01 13:05:08;;;;;;;19.65;13.38;;;384.70;1049.60;;;;;;5087079;28;20090;-78
2021/03/01 13:07:36;;;;;;;26.77;13.13;;;409.70;1024.00;;;;;;5078629;28;20373;-77
2021/03/01 13:10:01;;;;;;;26.83;14.48;;;409.80;998.40;;;;;;5073378;28;20021;-79
2021/03/01 13:12:27;;;;;;;22.90;13.50;;;410.00;998.40;;;;;;5075216;28;20031;-78
2021/03/01 13:14:54;;;;;;;26.50;15.98;;;409.90;998.40;;;;;;5086162;28;20020;-77
2021/03/01 13:17:20;;;;;;;28.77;16.02;;;410.00;998.40;;;;;;5090547;28;20150;-76
2021/03/01 13:19:45;;;;;;;23.10;14.95;;;410.10;998.40;;;;;;5094373;28;20527;-78
2021/03/01 13:22:11;;;;;;;32.75;17.98;;;410.30;972.80;;;;;;5090066;28;20031;-76
2021/03/01 13:24:37;;;;;;;26.67;14.93;;;410.00;998.40;;;;;;5093251;28;20025;-77
2021/03/01 13:27:02;;;;;;;20.83;14.88;;;384.90;1024.00;;;;;;5089777;28;20081;-75
2021/03/01 13:29:28;;;;;;;30.98;18.83;;;384.90;1024.00;;;;;;5088624;28;20032;-79